Time;durP1;ratioP1;P1;durP2;ratioP2;P2;SDS_P1;SDS_P2;PMS_P1;PMS_P2;Temp;Humidity;BMP_temperature;BMP_pressure;BME280_temperature;BME280_humidity;BME280_pressure;Samples;Min_cycle;Max_cycle;Signal;HPM_P1;HPM_P2
2019/08/18 00:01:31;;;;;;;4;2.7;;;;;;;18.99;75.99609;957.2762;;;;
2019/08/18 00:03:56;;;;;;;4.5;3;;;;;;;18.88;76.30469;957.2282;;;;
2019/08/18 00:06:22;;;;;;;5.7;3.2;;;;;;;18.85;75.93652;957.1509;;;;
2019/08/18 00:08:47;;;;;;;5.8;3.2;;;;;;;18.81;76.07031;957.0945;;;;
2019/08/18 00:11:12;;;;;;;5.3;3.4;;;;;;;18.77;77.14355;957.1224;;;;
2019/08/18 00:13:38;;;;;;;5.3;2.7;;;;;;;18.77;77.12012;957.1439;;;;
2019/08/18 00:16:04;;;;;;;3.8;2.8;;;;;;;18.89;76.40332;957.1756;;;;
2019/08/18 00:18:29;;;;;;;5.4;3.1;;;;;;;18.91;75.88965;957.0845;;;;
2019/08/18 00:20:54;;;;;;;5.1;3;;;;;;;18.9;77.0127;957.0466;;;;
2019/08/18 00:23:19;;;;;;;4.7;3.3;;;;;;;18.86;75.72656;957.0045;;;;
2019/08/18 00:25:45;;;;;;;5.8;3.5;;;;;;;18.86;75.42285;956.9822;;;;
2019/08/18 00:28:10;;;;;;;6.7;3.4;;;;;;;18.8;76.19629;956.9338;;;;
2019/08/18 00:30:35;;;;;;;5.3;3.6;;;;;;;18.77;75.57031;956.9548;;;;
2019/08/18 00:33:00;;;;;;;4.4;3;;;;;;;18.78;76.45313;956.957;;;;
2019/08/18 00:35:25;;;;;;;5.2;3.6;;;;;;;18.86;75.21094;957.0145;;;;
2019/08/18 00:37:53;;;;;;;5.7;3.7;;;;;;;18.79;75.36426;957.0355;;;;
2019/08/18 00:40:18;;;;;;;5.7;3.3;;;;;;;18.81;74.87598;957.0506;;;;
2019/08/18 00:42:43;;;;;;;4.6;3.1;;;;;;;18.79;76.41992;957.0768;;;;
2019/08/18 00:45:08;;;;;;;5.5;3.7;;;;;;;18.87;75.78711;957.0465;;;;
2019/08/18 00:47:33;;;;;;;5.6;3.3;;;;;;;18.82;76.21289;957.002;;;;
2019/08/18 00:49:59;;;;;;;5.3;3.2;;;;;;;18.74;76.66797;957.0239;;;;
2019/08/18 00:52:24;;;;;;;6.2;2.9;;;;;;;18.68;76.97363;956.9933;;;;
2019/08/18 00:54:49;;;;;;;3.5;2.9;;;;;;;18.63;77.77539;956.9775;;;;
2019/08/18 00:57:14;;;;;;;4.7;3.1;;;;;;;18.65;77.69434;956.9229;;;;
2019/08/18 00:59:39;;;;;;;4.6;3;;;;;;;18.64;77.65918;956.8984;;;;
2019/08/18 01:02:04;;;;;;;4.1;2.9;;;;;;;18.73;77.49902;956.8945;;;;
2019/08/18 01:04:29;;;;;;;4.2;3.3;;;;;;;18.75;76.66992;956.8808;;;;
2019/08/18 01:06:54;;;;;;;5.3;3.3;;;;;;;18.66;76.70215;956.8127;;;;
2019/08/18 01:09:19;;;;;;;6.3;3.3;;;;;;;18.75;76.90234;956.8347;;;;
2019/08/18 01:11:44;;;;;;;3.9;3.1;;;;;;;18.75;77.20801;956.8281;;;;
2019/08/18 01:14:09;;;;;;;4.9;3.3;;;;;;;18.83;75.89746;956.7623;;;;
2019/08/18 01:16:34;;;;;;;5.6;3.3;;;;;;;18.65;77.75293;956.7611;;;;
2019/08/18 01:19:00;;;;;;;6.4;2.9;;;;;;;18.7;77.16406;956.6778;;;;
2019/08/18 01:21:25;;;;;;;4.1;2.9;;;;;;;18.75;76.77539;956.5869;;;;
2019/08/18 01:23:50;;;;;;;4.3;3.1;;;;;;;18.72;77.22656;956.5995;;;;
2019/08/18 01:26:15;;;;;;;5;3.4;;;;;;;18.78;76.52148;956.6136;;;;
2019/08/18 01:28:40;;;;;;;6;3.2;;;;;;;18.75;76.82227;956.5406;;;;
2019/08/18 01:33:31;;;;;;;4.9;3.5;;;;;;;18.7;76.58008;956.562;;;;
2019/08/18 01:35:56;;;;;;;5;3.5;;;;;;;18.64;76.80371;956.5903;;;;
2019/08/18 01:38:21;;;;;;;6.6;3.5;;;;;;;18.61;76.7168;956.5332;;;;
2019/08/18 01:40:46;;;;;;;4.5;3.2;;;;;;;18.59;76.44238;956.4888;;;;
2019/08/18 01:43:11;;;;;;;4.9;3.2;;;;;;;18.68;75.74316;956.5228;;;;
2019/08/18 01:45:37;;;;;;;5.1;3.6;;;;;;;18.68;76.25879;956.512;;;;
2019/08/18 01:48:02;;;;;;;4.8;3.6;;;;;;;18.64;76.72168;956.4582;;;;
2019/08/18 01:50:27;;;;;;;6;3.4;;;;;;;18.7;75.41699;956.4169;;;;
2019/08/18 01:52:52;;;;;;;6.5;3.9;;;;;;;18.64;75.5957;956.3923;;;;
2019/08/18 01:55:17;;;;;;;5.8;3.7;;;;;;;18.72;75.59766;956.3683;;;;
2019/08/18 01:57:42;;;;;;;4.2;3.8;;;;;;;18.71;74.98633;956.3753;;;;
2019/08/18 02:00:07;;;;;;;5.7;3.6;;;;;;;18.65;75.50391;956.3392;;;;
2019/08/18 02:02:36;;;;;;;7.5;4.1;;;;;;;18.6;76.44531;956.3728;;;;
2019/08/18 02:04:59;;;;;;;7.9;4.1;;;;;;;18.56;76.54297;956.3953;;;;
2019/08/18 02:07:24;;;;;;;4.7;3.7;;;;;;;18.57;76.35547;956.3554;;;;
2019/08/18 02:09:49;;;;;;;5.5;4.1;;;;;;;18.6;75.92969;956.3547;;;;
2019/08/18 02:12:22;;;;;;;7.1;4.1;;;;;;;18.54;76.23535;956.3211;;;;
2019/08/18 02:14:47;;;;;;;6.4;4.4;;;;;;;18.56;76.51953;956.2936;;;;
2019/08/18 02:17:12;;;;;;;6.6;4.1;;;;;;;18.52;76.86328;956.2913;;;;
2019/08/18 02:19:37;;;;;;;5.6;3.9;;;;;;;18.54;76.53809;956.2173;;;;
2019/08/18 02:22:03;;;;;;;6.8;4.5;;;;;;;18.43;76.70703;956.2226;;;;
2019/08/18 02:24:28;;;;;;;6.6;4.1;;;;;;;18.44;77.57813;956.1677;;;;
2019/08/18 02:26:53;;;;;;;5.3;4.1;;;;;;;18.39;77.73242;956.157;;;;
2019/08/18 02:29:18;;;;;;;7.1;4.2;;;;;;;18.38;77.42578;956.1739;;;;
2019/08/18 02:31:43;;;;;;;8;4.2;;;;;;;18.34;77.82813;956.1194;;;;
2019/08/18 02:34:08;;;;;;;6.6;4.1;;;;;;;18.39;77.80273;956.0457;;;;
2019/08/18 02:36:33;;;;;;;6.4;4;;;;;;;18.38;77.74219;956.0147;;;;
2019/08/18 02:38:58;;;;;;;8.9;4.1;;;;;;;18.51;77.30762;955.9783;;;;
2019/08/18 02:41:23;;;;;;;7.6;4.1;;;;;;;18.36;77.82129;955.9404;;;;
2019/08/18 02:43:48;;;;;;;5.4;4;;;;;;;18.37;77.71777;955.9316;;;;
2019/08/18 02:46:13;;;;;;;7.3;4;;;;;;;18.34;78.35547;955.9592;;;;
2019/08/18 02:48:39;;;;;;;6.1;4.2;;;;;;;18.37;78.06836;955.9199;;;;
2019/08/18 02:51:04;;;;;;;8.5;4.3;;;;;;;18.3;78.60645;955.9975;;;;
2019/08/18 02:53:29;;;;;;;5.7;3.7;;;;;;;18.29;79.01563;956.0334;;;;
2019/08/18 02:55:54;;;;;;;5;3.7;;;;;;;18.34;78.4043;955.9799;;;;
2019/08/18 02:58:20;;;;;;;5.9;3.6;;;;;;;18.35;78.08887;956.0019;;;;
2019/08/18 03:00:45;;;;;;;5.4;4;;;;;;;18.28;78.93164;955.9858;;;;
2019/08/18 03:03:10;;;;;;;4.9;3.8;;;;;;;18.25;79.40527;956.0119;;;;
2019/08/18 03:05:35;;;;;;;8.2;3.8;;;;;;;18.24;79.52051;956.0193;;;;
2019/08/18 03:08:00;;;;;;;5.4;3.6;;;;;;;18.28;79.05859;956.0329;;;;
2019/08/18 03:10:25;;;;;;;6;3.7;;;;;;;18.24;79.04102;956.049;;;;
2019/08/18 03:12:51;;;;;;;4.8;3.5;;;;;;;18.23;79.22852;956.064;;;;
2019/08/18 03:15:16;;;;;;;5.8;3.6;;;;;;;18.26;79.41895;956.0167;;;;
2019/08/18 03:17:41;;;;;;;5.9;3.7;;;;;;;18.31;79.75781;955.9844;;;;
2019/08/18 03:20:06;;;;;;;4.6;3.7;;;;;;;18.29;79.59961;955.9906;;;;
2019/08/18 03:22:32;;;;;;;4.8;3.8;;;;;;;18.24;80.07324;955.9953;;;;
2019/08/18 03:24:57;;;;;;;5.8;3.7;;;;;;;18.23;80.05762;956.0361;;;;
2019/08/18 03:27:22;;;;;;;6.4;3.7;;;;;;;18.23;80.71387;956.0007;;;;
2019/08/18 03:29:47;;;;;;;5.2;3.5;;;;;;;18.28;80.59473;956.0064;;;;
2019/08/18 03:32:12;;;;;;;6;3.7;;;;;;;18.34;80.05566;956.0053;;;;
2019/08/18 03:34:37;;;;;;;6;3.7;;;;;;;18.33;79.88867;956.0467;;;;
2019/08/18 03:37:02;;;;;;;5.5;3.6;;;;;;;18.37;80.56445;956.0686;;;;
2019/08/18 03:39:27;;;;;;;5.1;3.6;;;;;;;18.36;80.13965;956.0989;;;;
2019/08/18 03:41:53;;;;;;;5.7;3.9;;;;;;;18.28;80.46484;956.0692;;;;
2019/08/18 03:44:18;;;;;;;4.9;3.6;;;;;;;18.27;80.82715;956.0295;;;;
2019/08/18 03:46:43;;;;;;;3.7;3.3;;;;;;;18.35;80.18652;956.0149;;;;
2019/08/18 03:49:08;;;;;;;6.4;3.9;;;;;;;18.25;80.36719;956.0126;;;;
2019/08/18 03:51:33;;;;;;;5.5;3.8;;;;;;;18.24;80.63379;956.0416;;;;
2019/08/18 03:53:58;;;;;;;9.4;4.2;;;;;;;18.22;81.79004;956.1106;;;;
2019/08/18 03:56:23;;;;;;;5.5;3.9;;;;;;;18.17;81.51074;956.0925;;;;
2019/08/18 03:58:48;;;;;;;6.1;4.4;;;;;;;18.12;81.70117;956.1235;;;;
2019/08/18 04:02:31;;;;;;;6.5;4;;;;;;;18.1;81.62598;956.1497;;;;
2019/08/18 04:04:56;;;;;;;6;4.1;;;;;;;18.08;81.98535;956.1252;;;;
2019/08/18 04:07:21;;;;;;;6.5;4.1;;;;;;;18.01;81.99707;956.1666;;;;
2019/08/18 04:09:46;;;;;;;6.6;4.1;;;;;;;18.08;81.53125;956.0929;;;;
2019/08/18 04:12:11;;;;;;;5.3;4.2;;;;;;;18.07;81.89063;956.0469;;;;
2019/08/18 04:14:36;;;;;;;7.2;4.5;;;;;;;18.09;81.97754;956.0259;;;;
2019/08/18 04:17:02;;;;;;;6.6;4.3;;;;;;;18.1;82.10742;956.039;;;;
2019/08/18 04:19:27;;;;;;;6.4;4;;;;;;;18.18;81.61719;956.0081;;;;
2019/08/18 04:21:52;;;;;;;6.5;4.4;;;;;;;18.16;81.38184;956.0273;;;;
2019/08/18 04:24:17;;;;;;;5.9;4.6;;;;;;;18.13;81.65625;956.028;;;;
2019/08/18 04:26:42;;;;;;;7.2;4.3;;;;;;;18.2;80.36914;955.9919;;;;
2019/08/18 04:29:07;;;;;;;6.9;4.2;;;;;;;18.29;80.43262;956.0112;;;;
2019/08/18 04:31:32;;;;;;;5.9;4.2;;;;;;;18.23;79.67188;956.0087;;;;
2019/08/18 04:33:57;;;;;;;6.3;4.5;;;;;;;18.24;79.7334;956.02;;;;
2019/08/18 04:36:22;;;;;;;4.4;3.9;;;;;;;18.25;78.5498;956.0729;;;;
2019/08/18 04:38:47;;;;;;;6.5;3.9;;;;;;;18.36;78.05566;956.0717;;;;
2019/08/18 04:41:12;;;;;;;3.9;3.4;;;;;;;18.38;78.84375;956.0433;;;;
2019/08/18 04:43:37;;;;;;;5.9;4;;;;;;;18.4;78.93066;956.0984;;;;
2019/08/18 04:46:03;;;;;;;5.1;3.6;;;;;;;18.37;78.99414;956.0735;;;;
2019/08/18 04:48:28;;;;;;;4.8;3.7;;;;;;;18.42;78.69824;956.103;;;;
2019/08/18 04:50:53;;;;;;;4.7;3.7;;;;;;;18.38;77.69531;956.1458;;;;
2019/08/18 04:53:18;;;;;;;5.5;3.5;;;;;;;18.38;78.86719;956.1556;;;;
2019/08/18 04:55:43;;;;;;;5;3.8;;;;;;;18.37;79.31055;956.2087;;;;
2019/08/18 04:58:08;;;;;;;5.1;3.6;;;;;;;18.4;77.1377;956.1892;;;;
2019/08/18 05:00:33;;;;;;;3.6;3.3;;;;;;;18.44;78.89063;956.233;;;;
2019/08/18 05:02:58;;;;;;;5.7;3.7;;;;;;;18.43;78.83008;956.3446;;;;
2019/08/18 05:05:23;;;;;;;5.2;3.4;;;;;;;18.48;79.0957;956.3567;;;;
2019/08/18 05:07:48;;;;;;;5.8;3.6;;;;;;;18.46;79.91113;956.3211;;;;
2019/08/18 05:10:14;;;;;;;4.9;3.7;;;;;;;18.44;79.74609;956.3089;;;;
2019/08/18 05:12:44;;;;;;;6.9;4.1;;;;;;;18.36;79.81152;956.3606;;;;
2019/08/18 05:15:09;;;;;;;5.8;3.9;;;;;;;18.32;80.89453;956.3803;;;;
2019/08/18 05:17:34;;;;;;;4.6;4.1;;;;;;;18.36;80.81934;956.3564;;;;
2019/08/18 05:19:59;;;;;;;5.5;3.8;;;;;;;18.37;80.89258;956.3656;;;;
2019/08/18 05:22:24;;;;;;;5.3;4;;;;;;;18.27;81.4707;956.3704;;;;
2019/08/18 05:24:49;;;;;;;6.5;4.1;;;;;;;18.23;81.26465;956.4511;;;;
2019/08/18 05:27:14;;;;;;;5.9;3.6;;;;;;;18.39;80.49609;956.3742;;;;
2019/08/18 05:29:39;;;;;;;5.2;3.8;;;;;;;18.48;79.69336;956.3064;;;;
2019/08/18 05:32:04;;;;;;;5.2;3.8;;;;;;;18.46;82.04395;956.3055;;;;
2019/08/18 05:34:30;;;;;;;4.3;3.5;;;;;;;18.52;80.81348;956.3688;;;;
2019/08/18 05:36:55;;;;;;;5.1;3.5;;;;;;;18.55;80.19727;956.3592;;;;
2019/08/18 05:39:20;;;;;;;6.8;3.6;;;;;;;18.59;80.68555;956.4211;;;;
2019/08/18 05:41:45;;;;;;;6.1;3.7;;;;;;;18.57;80.88184;956.4509;;;;
2019/08/18 05:44:10;;;;;;;5.7;3.6;;;;;;;18.6;80.75977;956.4241;;;;
2019/08/18 05:46:35;;;;;;;7;3.7;;;;;;;18.69;76.91797;956.467;;;;
2019/08/18 05:49:00;;;;;;;4.1;3.3;;;;;;;18.76;75.96777;956.492;;;;
2019/08/18 05:51:25;;;;;;;4.1;3;;;;;;;18.84;75.26758;956.5267;;;;
2019/08/18 05:53:50;;;;;;;3.9;3;;;;;;;18.96;75.09961;956.5193;;;;
2019/08/18 05:56:15;;;;;;;4.5;3.3;;;;;;;18.92;78.27148;956.5617;;;;
2019/08/18 05:58:40;;;;;;;4.7;3.2;;;;;;;19.03;74.71191;956.5118;;;;
2019/08/18 06:01:05;;;;;;;5.6;2.9;;;;;;;19.09;74.07617;956.4991;;;;
2019/08/18 06:03:30;;;;;;;4.6;3.1;;;;;;;19.19;75.37305;956.5905;;;;
2019/08/18 06:05:55;;;;;;;4.9;3.2;;;;;;;19.22;75.8252;956.5452;;;;
2019/08/18 06:08:21;;;;;;;6.9;3.7;;;;;;;19.22;77.30273;956.58;;;;
2019/08/18 06:10:46;;;;;;;5.2;3.5;;;;;;;19.21;78.75781;956.5811;;;;
2019/08/18 06:13:11;;;;;;;5.5;3.5;;;;;;;19.26;77.1582;956.603;;;;
2019/08/18 06:15:36;;;;;;;4.9;3.1;;;;;;;19.28;77.90234;956.5232;;;;
2019/08/18 06:18:01;;;;;;;6.5;3.4;;;;;;;19.36;77.92676;956.4384;;;;
2019/08/18 06:20:26;;;;;;;3.6;3;;;;;;;19.46;76.80566;956.3791;;;;
2019/08/18 06:22:51;;;;;;;4.9;3.1;;;;;;;19.52;76.29883;956.4333;;;;
2019/08/18 06:25:18;;;;;;;4.8;2.8;;;;;;;19.53;75.06641;956.4628;;;;
2019/08/18 06:27:43;;;;;;;4.7;3;;;;;;;19.51;74.60547;956.4881;;;;
2019/08/18 06:30:08;;;;;;;4.2;2.8;;;;;;;19.56;74.89453;956.4373;;;;
2019/08/18 06:32:33;;;;;;;5;3.1;;;;;;;19.52;74.40918;956.4348;;;;
2019/08/18 06:34:58;;;;;;;4;2.9;;;;;;;19.66;72.93945;956.4281;;;;
2019/08/18 06:37:23;;;;;;;5;3.1;;;;;;;19.65;74.07715;956.4373;;;;
2019/08/18 06:39:48;;;;;;;3.3;2.8;;;;;;;19.74;73.92773;956.4819;;;;
2019/08/18 06:42:13;;;;;;;4;2.9;;;;;;;19.79;73.12402;956.5072;;;;
2019/08/18 06:44:38;;;;;;;3.7;2.6;;;;;;;19.91;72.13379;956.4763;;;;
2019/08/18 06:47:03;;;;;;;5.1;3.1;;;;;;;19.93;73.39453;956.4281;;;;
2019/08/18 06:49:29;;;;;;;3.4;2.6;;;;;;;20.18;69.97656;956.4545;;;;
2019/08/18 06:51:54;;;;;;;4.7;3;;;;;;;20.26;70.50684;956.3972;;;;
2019/08/18 06:54:19;;;;;;;4.3;2.8;;;;;;;20.39;69.41016;956.4295;;;;
2019/08/18 06:56:44;;;;;;;3.7;2.9;;;;;;;20.53;71.0459;956.4131;;;;
2019/08/18 06:59:09;;;;;;;4.5;2.9;;;;;;;20.71;67.98828;956.3605;;;;
2019/08/18 07:01:35;;;;;;;4.6;2.8;;;;;;;20.86;66.99707;956.4147;;;;
2019/08/18 07:04:00;;;;;;;3.7;2.6;;;;;;;21.06;65.08301;956.4169;;;;
2019/08/18 07:06:25;;;;;;;3.8;2.6;;;;;;;21.2;64.4082;956.421;;;;
2019/08/18 07:08:50;;;;;;;6.1;2.6;;;;;;;21.35;64.73633;956.4492;;;;
2019/08/18 07:11:15;;;;;;;4;2.6;;;;;;;21.47;65.00195;956.5043;;;;
2019/08/18 07:13:40;;;;;;;3.7;2.3;;;;;;;21.59;65.49023;956.5458;;;;
2019/08/18 07:16:06;;;;;;;4.9;2.3;;;;;;;21.65;66.2793;956.5157;;;;
2019/08/18 07:18:31;;;;;;;2.6;2.4;;;;;;;21.68;66.07129;956.4975;;;;
2019/08/18 07:20:56;;;;;;;3.1;2.4;;;;;;;21.82;64.26172;956.4309;;;;
2019/08/18 07:23:21;;;;;;;3.9;2.6;;;;;;;22.09;63.35742;956.44;;;;
2019/08/18 07:25:46;;;;;;;4;2.5;;;;;;;22.05;64.22461;956.4522;;;;
2019/08/18 07:28:11;;;;;;;3.7;2.5;;;;;;;22.33;62.98926;956.4625;;;;
2019/08/18 07:30:37;;;;;;;3.7;2.3;;;;;;;22.36;63.37012;956.4494;;;;
2019/08/18 07:33:02;;;;;;;4.5;2.4;;;;;;;22.51;62.55371;956.3753;;;;
2019/08/18 07:35:27;;;;;;;3.3;2.3;;;;;;;22.71;61.79883;956.379;;;;
2019/08/18 07:37:53;;;;;;;2.8;2.4;;;;;;;22.64;63.22168;956.3119;;;;
2019/08/18 07:40:18;;;;;;;3.5;2.2;;;;;;;22.86;60.99219;956.3091;;;;
2019/08/18 07:42:43;;;;;;;3.6;2.1;;;;;;;22.86;61.78516;956.2759;;;;
2019/08/18 07:45:08;;;;;;;3.1;2.2;;;;;;;22.82;63.40039;956.3592;;;;
2019/08/18 07:47:34;;;;;;;5.8;2;;;;;;;23.01;61.62891;956.3122;;;;
2019/08/18 07:49:59;;;;;;;3.1;2.1;;;;;;;23.17;61.52051;956.3557;;;;
2019/08/18 07:52:24;;;;;;;4.5;2.2;;;;;;;23.27;60.49121;956.3187;;;;
2019/08/18 07:54:49;;;;;;;3.2;1.9;;;;;;;23.41;59.98828;956.2823;;;;
2019/08/18 07:57:15;;;;;;;3;1.8;;;;;;;23.56;59.60547;956.2649;;;;
2019/08/18 07:59:40;;;;;;;3.7;2;;;;;;;23.71;57.7168;956.1962;;;;
2019/08/18 08:02:05;;;;;;;4.6;2.2;;;;;;;24.04;56.10938;956.2311;;;;
2019/08/18 08:04:30;;;;;;;4;2.6;;;;;;;23.97;57.19141;956.2457;;;;
2019/08/18 08:06:55;;;;;;;3.7;2.2;;;;;;;24;56.75684;956.2551;;;;
2019/08/18 08:09:20;;;;;;;3.9;1.8;;;;;;;24.22;55.84668;956.2441;;;;
2019/08/18 08:11:46;;;;;;;3.5;1.9;;;;;;;24.27;55.86523;956.217;;;;
2019/08/18 08:14:11;;;;;;;3.1;2.1;;;;;;;24.21;57.33105;956.2217;;;;
2019/08/18 08:16:36;;;;;;;4.5;2;;;;;;;24.26;56.83887;956.2614;;;;
2019/08/18 08:19:02;;;;;;;3.8;2.1;;;;;;;24.35;56.18457;956.2136;;;;
2019/08/18 08:21:27;;;;;;;4.7;2.3;;;;;;;24.24;58.35547;956.272;;;;
2019/08/18 08:23:52;;;;;;;4.2;1.9;;;;;;;24.3;57.21191;956.2957;;;;
2019/08/18 08:26:17;;;;;;;4;3.6;;;;;;;24.28;57.06738;956.288;;;;
2019/08/18 08:28:42;;;;;;;2.8;2.3;;;;;;;24.48;56.17773;956.3003;;;;
2019/08/18 08:31:07;;;;;;;2.5;1.8;;;;;;;24.65;55.59375;956.2791;;;;
2019/08/18 08:33:33;;;;;;;2.8;1.9;;;;;;;24.66;55.4873;956.2822;;;;
2019/08/18 08:35:58;;;;;;;3.4;2.6;;;;;;;24.44;58.12012;956.267;;;;
2019/08/18 08:38:23;;;;;;;3.3;2;;;;;;;24.53;56.05273;956.2242;;;;
2019/08/18 08:40:49;;;;;;;2.4;2.2;;;;;;;24.59;56.9873;956.1616;;;;
2019/08/18 08:43:14;;;;;;;4.3;2.7;;;;;;;24.51;59.1748;956.22;;;;
2019/08/18 08:45:39;;;;;;;4.2;2;;;;;;;24.83;56.04297;956.2032;;;;
2019/08/18 08:48:04;;;;;;;4;2;;;;;;;24.93;55.7002;956.2137;;;;
2019/08/18 08:50:29;;;;;;;3.3;1.8;;;;;;;24.72;57.6582;956.197;;;;
2019/08/18 08:52:54;;;;;;;4.3;2.3;;;;;;;24.92;55.13867;956.2026;;;;
2019/08/18 08:55:20;;;;;;;3.7;2.2;;;;;;;24.97;53.59863;956.1746;;;;
2019/08/18 08:57:45;;;;;;;4.3;2.3;;;;;;;24.99;53.23242;956.1906;;;;
2019/08/18 09:00:10;;;;;;;3.8;2.1;;;;;;;25.03;52.78613;956.1534;;;;
2019/08/18 09:02:35;;;;;;;5.3;2.3;;;;;;;25.02;53.08105;956.1593;;;;
2019/08/18 09:05:00;;;;;;;3.3;2.2;;;;;;;24.92;53.71191;956.1319;;;;
2019/08/18 09:07:26;;;;;;;4.1;2.4;;;;;;;25.01;52.62891;956.1412;;;;
2019/08/18 09:09:51;;;;;;;4.7;2.5;;;;;;;25.17;53.05176;956.1665;;;;
2019/08/18 09:12:16;;;;;;;3.9;2.1;;;;;;;25.27;53.01563;956.1569;;;;
2019/08/18 09:14:41;;;;;;;3.5;2.2;;;;;;;25.15;52.88281;956.1537;;;;
2019/08/18 09:17:06;;;;;;;5;2.5;;;;;;;25.18;53.45703;956.1806;;;;
2019/08/18 09:19:31;;;;;;;3.5;2.7;;;;;;;25.2;53.06836;956.1481;;;;
2019/08/18 09:21:57;;;;;;;4.1;2.4;;;;;;;25.47;52.63477;956.1456;;;;
2019/08/18 09:24:22;;;;;;;3.2;2.2;;;;;;;25.35;51.77539;956.1465;;;;
2019/08/18 09:26:47;;;;;;;3.2;2.5;;;;;;;25.34;53.16699;956.1078;;;;
2019/08/18 09:29:12;;;;;;;3.2;2.5;;;;;;;25.59;51.76758;956.1191;;;;
2019/08/18 09:31:38;;;;;;;4.5;2.3;;;;;;;25.56;52.12207;956.0971;;;;
2019/08/18 09:34:03;;;;;;;3.8;2.3;;;;;;;25.6;51.56543;956.0861;;;;
2019/08/18 09:36:28;;;;;;;3.6;2.4;;;;;;;25.81;51.62598;956.0613;;;;
2019/08/18 09:38:53;;;;;;;4.4;2.2;;;;;;;25.8;50.85059;956.067;;;;
2019/08/18 09:41:19;;;;;;;4.3;2.4;;;;;;;25.73;50.19922;956.0103;;;;
2019/08/18 09:43:44;;;;;;;3.4;2.2;;;;;;;26.02;48.58691;956.0281;;;;
2019/08/18 09:46:09;;;;;;;3.7;2.4;;;;;;;25.95;49.2832;956.0958;;;;
2019/08/18 09:48:34;;;;;;;4.7;2.3;;;;;;;26;48.94238;956.0797;;;;
2019/08/18 09:50:59;;;;;;;3.8;2.1;;;;;;;26.05;49.00879;956.06;;;;
2019/08/18 09:53:24;;;;;;;6.4;2.4;;;;;;;26.33;48.38184;956.0513;;;;
2019/08/18 09:55:50;;;;;;;3.7;2;;;;;;;26.34;47.94141;956.0366;;;;
2019/08/18 09:58:15;;;;;;;6.2;2.4;;;;;;;26.07;49.67676;955.9826;;;;
2019/08/18 10:00:40;;;;;;;3.6;2.3;;;;;;;26.22;48.37012;955.9866;;;;
2019/08/18 10:03:05;;;;;;;3.6;2.3;;;;;;;26.31;47.66406;956.0095;;;;
2019/08/18 10:05:30;;;;;;;2.7;2.2;;;;;;;26.34;48.20508;956.0831;;;;
2019/08/18 10:07:56;;;;;;;4.3;2.4;;;;;;;26.26;48.73242;955.9724;;;;
2019/08/18 10:10:21;;;;;;;4;2.3;;;;;;;26.45;48.10938;956.0714;;;;
2019/08/18 10:12:46;;;;;;;4.3;3;;;;;;;26.53;47.40137;956.0798;;;;
2019/08/18 10:15:12;;;;;;;2.7;2.2;;;;;;;27;42.81543;955.9995;;;;
2019/08/18 10:17:37;;;;;;;3.2;2.3;;;;;;;26.75;44.94043;956.0375;;;;
2019/08/18 10:20:02;;;;;;;4.9;2.8;;;;;;;26.9;43.27148;955.9972;;;;
2019/08/18 10:22:27;;;;;;;5.4;3.7;;;;;;;26.78;44.69238;955.9917;;;;
2019/08/18 10:24:52;;;;;;;4;2.4;;;;;;;26.66;44.84961;955.9967;;;;
2019/08/18 10:27:17;;;;;;;3.6;2.8;;;;;;;27.08;43.74316;955.9669;;;;
2019/08/18 10:29:43;;;;;;;5.1;2.3;;;;;;;27.02;43.05664;955.8794;;;;
2019/08/18 10:32:08;;;;;;;3.4;2.4;;;;;;;26.94;44.32617;955.842;;;;
2019/08/18 10:34:33;;;;;;;5.1;2.6;;;;;;;27.08;43.57617;955.8695;;;;
2019/08/18 10:36:58;;;;;;;4.6;2;;;;;;;27.15;42.75781;955.8516;;;;
2019/08/18 10:39:24;;;;;;;3.9;2.1;;;;;;;27.12;43.73438;955.7775;;;;
2019/08/18 10:41:49;;;;;;;2.7;2.1;;;;;;;27.36;42.63574;955.7957;;;;
2019/08/18 10:44:14;;;;;;;4.5;2.2;;;;;;;27.47;41.04199;955.7635;;;;
2019/08/18 10:46:39;;;;;;;3.8;2.1;;;;;;;27.5;42.16992;955.7424;;;;
2019/08/18 10:49:04;;;;;;;3.4;2.3;;;;;;;27.67;41.95801;955.8309;;;;
2019/08/18 10:51:29;;;;;;;3.3;2.3;;;;;;;27.27;43.0918;955.748;;;;
2019/08/18 10:53:55;;;;;;;3.2;2.1;;;;;;;27.38;42.18262;955.7957;;;;
2019/08/18 10:56:20;;;;;;;3.7;2.1;;;;;;;27.85;40.71777;955.7687;;;;
2019/08/18 10:58:45;;;;;;;3.1;2.1;;;;;;;27.73;41.12598;955.7206;;;;
2019/08/18 11:01:10;;;;;;;4.6;2;;;;;;;27.6;41.86816;955.7036;;;;
2019/08/18 11:03:35;;;;;;;4;2.1;;;;;;;27.89;40.19531;955.7181;;;;
2019/08/18 11:06:00;;;;;;;2.5;2;;;;;;;27.92;40.37695;955.7158;;;;
2019/08/18 11:08:25;;;;;;;7.8;4.7;;;;;;;27.72;41.5918;955.6935;;;;
2019/08/18 11:10:50;;;;;;;6.6;2.8;;;;;;;27.86;41.26953;955.7118;;;;
2019/08/18 11:13:15;;;;;;;8.6;6.8;;;;;;;27.86;41.80859;955.7416;;;;
2019/08/18 11:15:40;;;;;;;5.7;2.6;;;;;;;27.97;42.30957;955.6799;;;;
2019/08/18 11:18:06;;;;;;;3.7;2.5;;;;;;;28.16;40.12305;955.6586;;;;
2019/08/18 11:20:31;;;;;;;7;3.6;;;;;;;28.01;41.22363;955.6653;;;;
2019/08/18 11:22:56;;;;;;;3.9;2.5;;;;;;;28.04;40.26953;955.6297;;;;
2019/08/18 11:25:21;;;;;;;3.5;2.2;;;;;;;28.34;39.51563;955.5894;;;;
2019/08/18 11:27:46;;;;;;;3.2;2.2;;;;;;;28.41;37.98828;955.5469;;;;
2019/08/18 11:30:11;;;;;;;6.2;2.7;;;;;;;28.5;37.73242;955.572;;;;
2019/08/18 11:32:36;;;;;;;3.9;2.6;;;;;;;28.47;37.47852;955.498;;;;
2019/08/18 11:35:01;;;;;;;2.5;2.2;;;;;;;28.82;35.62402;955.4669;;;;
2019/08/18 11:37:26;;;;;;;4.1;2.1;;;;;;;28.96;35.41992;955.418;;;;
2019/08/18 11:39:51;;;;;;;5.3;2.6;;;;;;;29.09;36.72559;955.3931;;;;
2019/08/18 11:42:16;;;;;;;4.1;1.9;;;;;;;29.07;36.37598;955.3878;;;;
2019/08/18 11:44:41;;;;;;;2.5;2.2;;;;;;;29.32;36.2998;955.4005;;;;
2019/08/18 11:47:07;;;;;;;4.3;2.3;;;;;;;29.27;35.05957;955.3924;;;;
2019/08/18 11:49:32;;;;;;;3.4;1.7;;;;;;;29.55;34.6123;955.4216;;;;
2019/08/18 11:51:57;;;;;;;2.8;1.8;;;;;;;29.76;34.49707;955.3813;;;;
2019/08/18 11:54:23;;;;;;;2.9;2;;;;;;;29.54;35.52539;955.4068;;;;
2019/08/18 11:56:48;;;;;;;3.3;1.9;;;;;;;29.48;35.62891;955.3656;;;;
2019/08/18 11:59:13;;;;;;;2.4;2;;;;;;;29.48;35.64063;955.3992;;;;
2019/08/18 12:01:39;;;;;;;4.2;1.8;;;;;;;29.49;34.55957;955.3011;;;;
2019/08/18 12:04:04;;;;;;;2.4;1.8;;;;;;;29.64;33.3457;955.2947;;;;
2019/08/18 12:06:29;;;;;;;2.8;2;;;;;;;29.4;34.58887;955.3199;;;;
2019/08/18 12:08:55;;;;;;;3.4;2.6;;;;;;;29.49;34.48828;955.2664;;;;
2019/08/18 12:11:20;;;;;;;2.6;1.7;;;;;;;29.62;34.06543;955.2814;;;;
2019/08/18 12:13:45;;;;;;;3.3;1.8;;;;;;;29.91;33.58203;955.3113;;;;
2019/08/18 12:16:10;;;;;;;2.1;1.6;;;;;;;29.89;33.48438;955.2833;;;;
2019/08/18 12:18:35;;;;;;;3.3;2.3;;;;;;;29.92;33.72754;955.2544;;;;
2019/08/18 12:21:00;;;;;;;3.4;1.7;;;;;;;29.74;33.75;955.2319;;;;
2019/08/18 12:23:26;;;;;;;2.5;1.8;;;;;;;30.06;32.51074;955.2271;;;;
2019/08/18 12:25:51;;;;;;;1.9;1.4;;;;;;;30.08;32.44043;955.165;;;;
2019/08/18 12:28:16;;;;;;;2.1;1.5;;;;;;;30.23;30.5625;955.1359;;;;
2019/08/18 12:30:41;;;;;;;2.9;1.7;;;;;;;30.31;31.5293;955.1152;;;;
2019/08/18 12:33:06;;;;;;;3.1;1.7;;;;;;;30.37;32.30469;955.0505;;;;
2019/08/18 12:35:32;;;;;;;3.8;1.8;;;;;;;30.53;32.62793;954.986;;;;
2019/08/18 12:37:56;;;;;;;2.3;1.7;;;;;;;30.56;32.0166;955.0098;;;;
2019/08/18 12:40:22;;;;;;;3.1;1.7;;;;;;;30.65;31.58984;954.9995;;;;
2019/08/18 12:42:47;;;;;;;2.3;1.7;;;;;;;30.5;32.54199;954.9695;;;;
2019/08/18 12:45:12;;;;;;;2.7;1.7;;;;;;;30.69;31.88281;954.9612;;;;
2019/08/18 12:47:37;;;;;;;2.4;1.6;;;;;;;30.72;31.30566;954.9642;;;;
2019/08/18 12:50:02;;;;;;;1.9;1.5;;;;;;;30.89;30.99219;955.0267;;;;
2019/08/18 12:52:27;;;;;;;2.5;1.7;;;;;;;30.88;31.93164;954.9686;;;;
2019/08/18 12:54:53;;;;;;;3.2;1.7;;;;;;;30.78;33.20117;955.0101;;;;
2019/08/18 12:57:18;;;;;;;2.9;1.6;;;;;;;30.67;32.28906;954.9455;;;;
2019/08/18 12:59:43;;;;;;;3.8;1.8;;;;;;;30.75;32.04297;954.9631;;;;
2019/08/18 13:02:08;;;;;;;2.2;1.7;;;;;;;30.89;32.7998;954.9807;;;;
2019/08/18 13:04:33;;;;;;;2.6;1.7;;;;;;;31.23;30.72559;954.99;;;;
2019/08/18 13:06:58;;;;;;;2.5;1.6;;;;;;;31.4;31.18457;954.9484;;;;
2019/08/18 13:09:23;;;;;;;3.1;1.9;;;;;;;31.39;30.83301;954.9526;;;;
2019/08/18 13:11:48;;;;;;;1.9;1.6;;;;;;;31.29;32.25;954.9459;;;;
2019/08/18 13:14:13;;;;;;;3;1.6;;;;;;;31.35;31.39746;954.9034;;;;
2019/08/18 13:16:38;;;;;;;3.1;1.5;;;;;;;31.42;31.31738;954.9553;;;;
2019/08/18 13:19:03;;;;;;;2.8;1.6;;;;;;;31.66;31.39551;954.8517;;;;
2019/08/18 13:21:29;;;;;;;2.7;1.4;;;;;;;31.97;30.08789;954.9387;;;;
2019/08/18 13:23:54;;;;;;;2.5;1.5;;;;;;;31.83;30.50098;954.9313;;;;
2019/08/18 13:26:19;;;;;;;2.4;1.5;;;;;;;31.93;30.27832;954.9322;;;;
2019/08/18 13:28:44;;;;;;;2.1;1.6;;;;;;;31.98;29.44824;954.8701;;;;
2019/08/18 13:31:09;;;;;;;2.1;1.5;;;;;;;32;29.35254;954.8492;;;;
2019/08/18 13:33:34;;;;;;;1.7;1.6;;;;;;;32.34;28.61328;954.7385;;;;
2019/08/18 13:36:01;;;;;;;2.2;1.6;;;;;;;32.03;30.10352;954.7656;;;;
2019/08/18 13:38:26;;;;;;;2.6;1.8;;;;;;;32.06;28.93359;954.7552;;;;
2019/08/18 13:40:51;;;;;;;2.1;1.6;;;;;;;32.01;29.28125;954.7757;;;;
2019/08/18 13:43:16;;;;;;;1.7;1.5;;;;;;;32.13;29.25293;954.7737;;;;
2019/08/18 13:45:41;;;;;;;2.6;1.6;;;;;;;32.16;28.84375;954.7316;;;;
2019/08/18 13:48:06;;;;;;;2.3;1.5;;;;;;;32.44;28.20898;954.7006;;;;
2019/08/18 13:50:31;;;;;;;2.6;1.5;;;;;;;32.54;27.79199;954.7447;;;;
2019/08/18 13:52:56;;;;;;;3.6;1.6;;;;;;;32.67;28.12598;954.7189;;;;
2019/08/18 13:55:21;;;;;;;1.8;1.5;;;;;;;32.61;27.77148;954.6439;;;;
2019/08/18 13:57:47;;;;;;;2.3;1.5;;;;;;;32.55;28.25195;954.6924;;;;
2019/08/18 14:00:12;;;;;;;2.1;1.4;;;;;;;32.5;27.89746;954.6747;;;;
2019/08/18 14:02:37;;;;;;;2;1.4;;;;;;;32.27;28.34277;954.6778;;;;
2019/08/18 14:05:02;;;;;;;2.2;1.6;;;;;;;32.28;28.47656;954.6418;;;;
2019/08/18 14:07:27;;;;;;;2.6;1.7;;;;;;;32.27;29.41895;954.6025;;;;
2019/08/18 14:09:52;;;;;;;3.7;1.7;;;;;;;32.16;30.7041;954.6038;;;;
2019/08/18 14:12:17;;;;;;;2.4;1.7;;;;;;;32.13;29.89258;954.6033;;;;
2019/08/18 14:14:42;;;;;;;2;1.5;;;;;;;31.81;30.36621;954.5637;;;;
2019/08/18 14:17:08;;;;;;;1.7;1.5;;;;;;;31.72;29.85352;954.5528;;;;